sensor_id;sensor_type;location;lat;lon;timestamp;pressure;altitude;pressure_sealevel;temperature;humidity
35908;BME280;22003;50.320;8.054;2023-11-21T00:01:58;98937.78;;;6.59;100.00
35908;BME280;22003;50.320;8.054;2023-11-21T00:04:24;98983.59;;;6.92;100.00
35908;BME280;22003;50.320;8.054;2023-11-21T00:06:52;98993.66;;;6.98;100.00
35908;BME280;22003;50.320;8.054;2023-11-21T00:09:18;98993.28;;;6.91;100.00
35908;BME280;22003;50.320;8.054;2023-11-21T00:11:44;98985.72;;;6.86;100.00
35908;BME280;22003;50.320;8.054;2023-11-21T00:14:11;98983.81;;;7.24;100.00
35908;BME280;22003;50.320;8.054;2023-11-21T00:16:36;98997.53;;;7.16;100.00
35908;BME280;22003;50.320;8.054;2023-11-21T00:19:01;99000.38;;;7.02;100.00
35908;BME280;22003;50.320;8.054;2023-11-21T00:21:27;98962.34;;;6.71;100.00
35908;BME280;22003;50.320;8.054;2023-11-21T00:23:52;99007.97;;;6.82;100.00
35908;BME280;22003;50.320;8.054;2023-11-21T00:26:17;99012.44;;;6.93;100.00
35908;BME280;22003;50.320;8.054;2023-11-21T00:28:43;99002.72;;;6.82;100.00
35908;BME280;22003;50.320;8.054;2023-11-21T00:31:08;99002.38;;;6.87;100.00
35908;BME280;22003;50.320;8.054;2023-11-21T00:33:33;99006.78;;;6.86;100.00
35908;BME280;22003;50.320;8.054;2023-11-21T00:35:58;98954.75;;;6.55;100.00
35908;BME280;22003;50.320;8.054;2023-11-21T00:38:24;99007.41;;;6.90;100.00
35908;BME280;22003;50.320;8.054;2023-11-21T00:40:49;99002.22;;;7.12;100.00
35908;BME280;22003;50.320;8.054;2023-11-21T00:43:14;99010.56;;;6.95;100.00
35908;BME280;22003;50.320;8.054;2023-11-21T00:45:40;99011.09;;;6.87;100.00
35908;BME280;22003;50.320;8.054;2023-11-21T00:48:05;98987.53;;;6.86;100.00
35908;BME280;22003;50.320;8.054;2023-11-21T00:50:31;99006.63;;;7.01;100.00
35908;BME280;22003;50.320;8.054;2023-11-21T00:52:56;99005.19;;;7.08;100.00
35908;BME280;22003;50.320;8.054;2023-11-21T00:55:22;98989.94;;;6.89;100.00
35908;BME280;22003;50.320;8.054;2023-11-21T00:57:47;99010.59;;;7.06;100.00
35908;BME280;22003;50.320;8.054;2023-11-21T01:00:12;99008.03;;;7.05;100.00
35908;BME280;22003;50.320;8.054;2023-11-21T01:02:43;99008.16;;;7.03;100.00
35908;BME280;22003;50.320;8.054;2023-11-21T01:05:13;99012.13;;;7.09;100.00
35908;BME280;22003;50.320;8.054;2023-11-21T01:07:38;99019.91;;;7.10;100.00
35908;BME280;22003;50.320;8.054;2023-11-21T01:10:04;99013.47;;;7.14;100.00
35908;BME280;22003;50.320;8.054;2023-11-21T01:12:37;99009.03;;;7.15;100.00
35908;BME280;22003;50.320;8.054;2023-11-21T01:15:06;98997.63;;;7.03;100.00
35908;BME280;22003;50.320;8.054;2023-11-21T01:17:32;99023.03;;;7.15;100.00
35908;BME280;22003;50.320;8.054;2023-11-21T01:19:59;98981.75;;;6.81;100.00
35908;BME280;22003;50.320;8.054;2023-11-21T01:22:25;99045.56;;;7.20;100.00
35908;BME280;22003;50.320;8.054;2023-11-21T01:24:54;99001.00;;;7.05;100.00
35908;BME280;22003;50.320;8.054;2023-11-21T01:27:19;99016.19;;;7.02;100.00
35908;BME280;22003;50.320;8.054;2023-11-21T01:29:45;99000.34;;;6.91;100.00
35908;BME280;22003;50.320;8.054;2023-11-21T01:32:10;99041.16;;;7.20;100.00
35908;BME280;22003;50.320;8.054;2023-11-21T01:34:36;99048.50;;;7.04;100.00
35908;BME280;22003;50.320;8.054;2023-11-21T01:37:02;98924.47;;;6.25;100.00
35908;BME280;22003;50.320;8.054;2023-11-21T01:39:29;99048.09;;;6.86;100.00
35908;BME280;22003;50.320;8.054;2023-11-21T01:41:55;99053.03;;;6.91;100.00
35908;BME280;22003;50.320;8.054;2023-11-21T01:44:20;99057.66;;;6.87;100.00
35908;BME280;22003;50.320;8.054;2023-11-21T01:46:45;99034.63;;;6.67;100.00
35908;BME280;22003;50.320;8.054;2023-11-21T01:49:12;99051.69;;;6.85;100.00
35908;BME280;22003;50.320;8.054;2023-11-21T01:51:39;99044.84;;;6.82;100.00
35908;BME280;22003;50.320;8.054;2023-11-21T01:54:05;99070.75;;;6.88;100.00
35908;BME280;22003;50.320;8.054;2023-11-21T01:56:31;99070.38;;;7.17;100.00
35908;BME280;22003;50.320;8.054;2023-11-21T01:58:57;99056.53;;;7.02;100.00
35908;BME280;22003;50.320;8.054;2023-11-21T02:01:23;99000.81;;;6.60;100.00
35908;BME280;22003;50.320;8.054;2023-11-21T02:03:48;99059.28;;;7.01;100.00
35908;BME280;22003;50.320;8.054;2023-11-21T02:06:14;99065.06;;;7.06;100.00
35908;BME280;22003;50.320;8.054;2023-11-21T02:08:39;99058.03;;;7.18;100.00
35908;BME280;22003;50.320;8.054;2023-11-21T02:11:07;99061.13;;;7.11;100.00
35908;BME280;22003;50.320;8.054;2023-11-21T02:13:34;99026.19;;;6.85;100.00
35908;BME280;22003;50.320;8.054;2023-11-21T02:15:59;99061.69;;;7.04;100.00
35908;BME280;22003;50.320;8.054;2023-11-21T02:18:25;99052.88;;;7.27;100.00
35908;BME280;22003;50.320;8.054;2023-11-21T02:20:50;99061.53;;;7.29;100.00
35908;BME280;22003;50.320;8.054;2023-11-21T02:23:16;99066.94;;;7.28;100.00
35908;BME280;22003;50.320;8.054;2023-11-21T02:25:41;99067.31;;;7.10;100.00
35908;BME280;22003;50.320;8.054;2023-11-21T02:28:07;99059.88;;;7.04;100.00
35908;BME280;22003;50.320;8.054;2023-11-21T02:30:33;99071.47;;;7.26;100.00
35908;BME280;22003;50.320;8.054;2023-11-21T02:32:58;99071.03;;;7.08;100.00
35908;BME280;22003;50.320;8.054;2023-11-21T02:35:24;99067.47;;;7.20;100.00
35908;BME280;22003;50.320;8.054;2023-11-21T02:37:51;99075.34;;;7.09;100.00
35908;BME280;22003;50.320;8.054;2023-11-21T02:40:16;99074.84;;;7.04;100.00
35908;BME280;22003;50.320;8.054;2023-11-21T02:42:50;99085.50;;;7.02;100.00
35908;BME280;22003;50.320;8.054;2023-11-21T02:45:21;99066.34;;;7.00;100.00
35908;BME280;22003;50.320;8.054;2023-11-21T02:47:47;99081.06;;;7.03;100.00
35908;BME280;22003;50.320;8.054;2023-11-21T02:50:13;99075.94;;;7.01;100.00
35908;BME280;22003;50.320;8.054;2023-11-21T02:52:39;99074.34;;;6.99;100.00
35908;BME280;22003;50.320;8.054;2023-11-21T02:55:07;99022.63;;;6.63;100.00
35908;BME280;22003;50.320;8.054;2023-11-21T02:57:32;99079.63;;;6.99;100.00
35908;BME280;22003;50.320;8.054;2023-11-21T02:59:58;99078.78;;;6.98;100.00
35908;BME280;22003;50.320;8.054;2023-11-21T03:02:24;99090.38;;;6.96;100.00
35908;BME280;22003;50.320;8.054;2023-11-21T03:04:50;99090.16;;;6.99;100.00
35908;BME280;22003;50.320;8.054;2023-11-21T03:07:16;99089.31;;;6.98;100.00
35908;BME280;22003;50.320;8.054;2023-11-21T03:09:41;99086.59;;;7.00;100.00
35908;BME280;22003;50.320;8.054;2023-11-21T03:12:06;99058.63;;;6.86;100.00
35908;BME280;22003;50.320;8.054;2023-11-21T03:14:31;99083.59;;;7.04;100.00
35908;BME280;22003;50.320;8.054;2023-11-21T03:16:57;99081.06;;;7.03;100.00
35908;BME280;22003;50.320;8.054;2023-11-21T03:19:22;99089.22;;;7.00;100.00
35908;BME280;22003;50.320;8.054;2023-11-21T03:21:48;99096.25;;;6.99;100.00
35908;BME280;22003;50.320;8.054;2023-11-21T03:24:13;99093.75;;;6.98;100.00
35908;BME280;22003;50.320;8.054;2023-11-21T03:26:44;99100.22;;;7.05;100.00
35908;BME280;22003;50.320;8.054;2023-11-21T03:29:09;99108.81;;;6.96;100.00
35908;BME280;22003;50.320;8.054;2023-11-21T03:31:35;99108.06;;;6.94;100.00
35908;BME280;22003;50.320;8.054;2023-11-21T03:34:01;99107.34;;;6.92;100.00
35908;BME280;22003;50.320;8.054;2023-11-21T03:36:26;99107.47;;;6.90;100.00
35908;BME280;22003;50.320;8.054;2023-11-21T03:38:51;99113.34;;;6.94;100.00
35908;BME280;22003;50.320;8.054;2023-11-21T03:41:17;99118.59;;;6.94;100.00
35908;BME280;22003;50.320;8.054;2023-11-21T03:43:42;99118.59;;;6.94;100.00
35908;BME280;22003;50.320;8.054;2023-11-21T03:46:07;99126.19;;;6.98;100.00
35908;BME280;22003;50.320;8.054;2023-11-21T03:48:32;99123.88;;;6.94;100.00
35908;BME280;22003;50.320;8.054;2023-11-21T03:50:58;99123.88;;;6.94;100.00
35908;BME280;22003;50.320;8.054;2023-11-21T03:53:23;99124.75;;;6.94;100.00
35908;BME280;22003;50.320;8.054;2023-11-21T03:55:48;99112.88;;;6.88;100.00
35908;BME280;22003;50.320;8.054;2023-11-21T03:58:15;99125.78;;;6.92;100.00
35908;BME280;22003;50.320;8.054;2023-11-21T04:00:40;99119.06;;;6.87;100.00
35908;BME280;22003;50.320;8.054;2023-11-21T04:03:05;99116.78;;;6.83;100.00
35908;BME280;22003;50.320;8.054;2023-11-21T04:05:30;99122.66;;;6.86;100.00
35908;BME280;22003;50.320;8.054;2023-11-21T04:07:56;99129.84;;;6.84;100.00
35908;BME280;22003;50.320;8.054;2023-11-21T04:10:21;99104.72;;;6.68;100.00
35908;BME280;22003;50.320;8.054;2023-11-21T04:12:47;99128.31;;;6.93;100.00
35908;BME280;22003;50.320;8.054;2023-11-21T04:15:13;99135.38;;;6.93;100.00
35908;BME280;22003;50.320;8.054;2023-11-21T04:17:39;99097.66;;;6.68;100.00
35908;BME280;22003;50.320;8.054;2023-11-21T04:20:05;99139.41;;;7.09;100.00
35908;BME280;22003;50.320;8.054;2023-11-21T04:22:34;99150.63;;;7.00;100.00
35908;BME280;22003;50.320;8.054;2023-11-21T04:24:59;99157.25;;;7.06;100.00
35908;BME280;22003;50.320;8.054;2023-11-21T04:27:24;99072.44;;;6.77;100.00
35908;BME280;22003;50.320;8.054;2023-11-21T04:29:49;99165.19;;;7.17;100.00
35908;BME280;22003;50.320;8.054;2023-11-21T04:32:15;99165.16;;;7.06;100.00
35908;BME280;22003;50.320;8.054;2023-11-21T04:34:41;99165.66;;;7.11;100.00
35908;BME280;22003;50.320;8.054;2023-11-21T04:37:06;99153.03;;;7.03;100.00
35908;BME280;22003;50.320;8.054;2023-11-21T04:39:31;99179.75;;;7.10;100.00
35908;BME280;22003;50.320;8.054;2023-11-21T04:41:57;99173.03;;;7.06;100.00
35908;BME280;22003;50.320;8.054;2023-11-21T04:44:22;99178.25;;;6.95;100.00
35908;BME280;22003;50.320;8.054;2023-11-21T04:46:47;99187.91;;;7.07;100.00
35908;BME280;22003;50.320;8.054;2023-11-21T04:49:12;99112.34;;;6.83;100.00
35908;BME280;22003;50.320;8.054;2023-11-21T04:51:38;99176.47;;;7.19;100.00
35908;BME280;22003;50.320;8.054;2023-11-21T04:54:03;99176.97;;;7.00;100.00
35908;BME280;22003;50.320;8.054;2023-11-21T04:56:28;99185.31;;;7.18;100.00
35908;BME280;22003;50.320;8.054;2023-11-21T04:58:54;99197.13;;;7.36;100.00
35908;BME280;22003;50.320;8.054;2023-11-21T05:01:19;99159.25;;;7.02;100.00
35908;BME280;22003;50.320;8.054;2023-11-21T05:03:44;99198.31;;;7.32;100.00
35908;BME280;22003;50.320;8.054;2023-11-21T05:06:10;99194.63;;;7.35;100.00
35908;BME280;22003;50.320;8.054;2023-11-21T05:08:35;99197.13;;;7.36;100.00
35908;BME280;22003;50.320;8.054;2023-11-21T05:11:02;99201.31;;;7.28;100.00
35908;BME280;22003;50.320;8.054;2023-11-21T05:13:27;99196.63;;;7.31;100.00
35908;BME280;22003;50.320;8.054;2023-11-21T05:15:54;99196.38;;;7.23;100.00
35908;BME280;22003;50.320;8.054;2023-11-21T05:18:20;99209.72;;;7.33;100.00
35908;BME280;22003;50.320;8.054;2023-11-21T05:20:46;99195.47;;;7.11;100.00
35908;BME280;22003;50.320;8.054;2023-11-21T05:23:12;99225.50;;;7.09;100.00
35908;BME280;22003;50.320;8.054;2023-11-21T05:25:37;99196.88;;;6.92;100.00
35908;BME280;22003;50.320;8.054;2023-11-21T05:28:03;99225.09;;;7.26;100.00
35908;BME280;22003;50.320;8.054;2023-11-21T05:30:29;99235.44;;;7.05;100.00
35908;BME280;22003;50.320;8.054;2023-11-21T05:32:54;99241.09;;;6.99;100.00
35908;BME280;22003;50.320;8.054;2023-11-21T05:35:19;99246.59;;;6.96;100.00
35908;BME280;22003;50.320;8.054;2023-11-21T05:37:46;99246.72;;;6.95;100.00
35908;BME280;22003;50.320;8.054;2023-11-21T05:40:11;99175.31;;;6.50;100.00
35908;BME280;22003;50.320;8.054;2023-11-21T05:42:39;99253.66;;;6.96;100.00
35908;BME280;22003;50.320;8.054;2023-11-21T05:45:04;99246.50;;;6.98;100.00
35908;BME280;22003;50.320;8.054;2023-11-21T05:47:41;99246.97;;;7.15;100.00
35908;BME280;22003;50.320;8.054;2023-11-21T05:50:10;99247.31;;;7.11;100.00
35908;BME280;22003;50.320;8.054;2023-11-21T05:52:37;99207.88;;;7.22;100.00
35908;BME280;22003;50.320;8.054;2023-11-21T05:55:03;99250.03;;;7.22;100.00
35908;BME280;22003;50.320;8.054;2023-11-21T05:57:35;99252.59;;;7.11;100.00
35908;BME280;22003;50.320;8.054;2023-11-21T06:00:05;99260.56;;;7.09;100.00
35908;BME280;22003;50.320;8.054;2023-11-21T06:02:38;99246.91;;;6.92;100.00
35908;BME280;22003;50.320;8.054;2023-11-21T06:05:05;99265.00;;;7.09;100.00
35908;BME280;22003;50.320;8.054;2023-11-21T06:07:30;99236.28;;;6.93;100.00
35908;BME280;22003;50.320;8.054;2023-11-21T06:09:55;99275.66;;;7.07;100.00
35908;BME280;22003;50.320;8.054;2023-11-21T06:12:20;99259.78;;;6.96;100.00
35908;BME280;22003;50.320;8.054;2023-11-21T06:14:46;99261.44;;;6.97;100.00
35908;BME280;22003;50.320;8.054;2023-11-21T06:17:11;99239.78;;;6.81;100.00
35908;BME280;22003;50.320;8.054;2023-11-21T06:19:36;99259.56;;;6.86;100.00
35908;BME280;22003;50.320;8.054;2023-11-21T06:22:01;99277.47;;;6.94;100.00
35908;BME280;22003;50.320;8.054;2023-11-21T06:24:27;99222.13;;;6.57;100.00
35908;BME280;22003;50.320;8.054;2023-11-21T06:26:53;99289.47;;;6.98;100.00
35908;BME280;22003;50.320;8.054;2023-11-21T06:29:18;99242.38;;;6.94;100.00
35908;BME280;22003;50.320;8.054;2023-11-21T06:31:43;99297.69;;;7.06;100.00
35908;BME280;22003;50.320;8.054;2023-11-21T06:34:09;99304.75;;;7.06;100.00
35908;BME280;22003;50.320;8.054;2023-11-21T06:36:35;99310.44;;;7.00;100.00
35908;BME280;22003;50.320;8.054;2023-11-21T06:39:01;99313.00;;;6.88;100.00
35908;BME280;22003;50.320;8.054;2023-11-21T06:41:26;99317.91;;;6.93;100.00
35908;BME280;22003;50.320;8.054;2023-11-21T06:43:51;99327.16;;;6.99;100.00
35908;BME280;22003;50.320;8.054;2023-11-21T06:46:18;99329.28;;;7.06;100.00
35908;BME280;22003;50.320;8.054;2023-11-21T06:48:44;99331.91;;;6.94;100.00
35908;BME280;22003;50.320;8.054;2023-11-21T06:51:10;99336.47;;;6.92;100.00
35908;BME280;22003;50.320;8.054;2023-11-21T06:53:36;99348.91;;;6.90;100.00
35908;BME280;22003;50.320;8.054;2023-11-21T06:56:02;99334.13;;;6.87;100.00
35908;BME280;22003;50.320;8.054;2023-11-21T06:58:27;99349.31;;;6.83;100.00
35908;BME280;22003;50.320;8.054;2023-11-21T07:00:52;99344.34;;;7.04;100.00
35908;BME280;22003;50.320;8.054;2023-11-21T07:03:18;99336.88;;;6.98;100.00
35908;BME280;22003;50.320;8.054;2023-11-21T07:05:44;99349.75;;;6.90;100.00
35908;BME280;22003;50.320;8.054;2023-11-21T07:08:09;99367.09;;;6.93;100.00
35908;BME280;22003;50.320;8.054;2023-11-21T07:10:35;99329.94;;;6.59;100.00
35908;BME280;22003;50.320;8.054;2023-11-21T07:13:02;99374.81;;;6.83;100.00
35908;BME280;22003;50.320;8.054;2023-11-21T07:15:27;99383.22;;;6.88;100.00
35908;BME280;22003;50.320;8.054;2023-11-21T07:17:53;99376.50;;;6.84;100.00
35908;BME280;22003;50.320;8.054;2023-11-21T07:20:19;99374.81;;;6.96;100.00
35908;BME280;22003;50.320;8.054;2023-11-21T07:22:44;99376.81;;;6.92;100.00
35908;BME280;22003;50.320;8.054;2023-11-21T07:25:10;99386.41;;;7.06;100.00
35908;BME280;22003;50.320;8.054;2023-11-21T07:27:35;99279.41;;;6.28;100.00
35908;BME280;22003;50.320;8.054;2023-11-21T07:30:03;99393.13;;;6.97;100.00
35908;BME280;22003;50.320;8.054;2023-11-21T07:32:30;99393.13;;;7.10;100.00
35908;BME280;22003;50.320;8.054;2023-11-21T07:34:57;99400.28;;;7.08;100.00
35908;BME280;22003;50.320;8.054;2023-11-21T07:37:24;99393.97;;;7.10;100.00
35908;BME280;22003;50.320;8.054;2023-11-21T07:39:51;99405.88;;;7.29;100.00
35908;BME280;22003;50.320;8.054;2023-11-21T07:42:20;99417.25;;;7.29;100.00
35908;BME280;22003;50.320;8.054;2023-11-21T07:44:46;99401.72;;;7.37;100.00
35908;BME280;22003;50.320;8.054;2023-11-21T07:47:11;99389.53;;;7.24;100.00
35908;BME280;22003;50.320;8.054;2023-11-21T07:49:36;99432.44;;;7.13;100.00
35908;BME280;22003;50.320;8.054;2023-11-21T07:52:02;99438.66;;;7.12;100.00
35908;BME280;22003;50.320;8.054;2023-11-21T07:54:27;99433.59;;;7.09;100.00
35908;BME280;22003;50.320;8.054;2023-11-21T07:56:52;99412.28;;;6.99;100.00
35908;BME280;22003;50.320;8.054;2023-11-21T07:59:18;99443.50;;;7.05;100.00
35908;BME280;22003;50.320;8.054;2023-11-21T08:01:43;99440.13;;;7.29;100.00
35908;BME280;22003;50.320;8.054;2023-11-21T08:04:10;99444.94;;;7.48;100.00
35908;BME280;22003;50.320;8.054;2023-11-21T08:06:35;99446.97;;;7.31;100.00
35908;BME280;22003;50.320;8.054;2023-11-21T08:09:01;99455.53;;;7.22;100.00
35908;BME280;22003;50.320;8.054;2023-11-21T08:11:26;99457.28;;;7.22;100.00
35908;BME280;22003;50.320;8.054;2023-11-21T08:13:54;99457.84;;;7.39;100.00
35908;BME280;22003;50.320;8.054;2023-11-21T08:16:20;99441.38;;;7.36;100.00
35908;BME280;22003;50.320;8.054;2023-11-21T08:18:45;99435.28;;;7.35;100.00
35908;BME280;22003;50.320;8.054;2023-11-21T08:21:12;99466.03;;;7.48;100.00
35908;BME280;22003;50.320;8.054;2023-11-21T08:23:38;99468.16;;;7.55;100.00
35908;BME280;22003;50.320;8.054;2023-11-21T08:26:04;99480.25;;;7.71;100.00
35908;BME280;22003;50.320;8.054;2023-11-21T08:28:30;99480.16;;;7.72;100.00
35908;BME280;22003;50.320;8.054;2023-11-21T08:30:55;99433.91;;;7.30;100.00
35908;BME280;22003;50.320;8.054;2023-11-21T08:33:20;99474.22;;;7.81;100.00
35908;BME280;22003;50.320;8.054;2023-11-21T08:35:46;99481.75;;;7.99;100.00
35908;BME280;22003;50.320;8.054;2023-11-21T08:38:12;99486.72;;;8.03;100.00
35908;BME280;22003;50.320;8.054;2023-11-21T08:40:37;99479.69;;;7.91;100.00
35908;BME280;22003;50.320;8.054;2023-11-21T08:43:03;99488.31;;;8.06;100.00
35908;BME280;22003;50.320;8.054;2023-11-21T08:45:30;99458.38;;;7.81;100.00
35908;BME280;22003;50.320;8.054;2023-11-21T08:47:55;99485.03;;;8.02;100.00
35908;BME280;22003;50.320;8.054;2023-11-21T08:50:21;99462.56;;;7.97;100.00
35908;BME280;22003;50.320;8.054;2023-11-21T08:52:46;99442.75;;;7.91;100.00
35908;BME280;22003;50.320;8.054;2023-11-21T08:55:11;99491.41;;;7.87;100.00
35908;BME280;22003;50.320;8.054;2023-11-21T08:57:38;99487.50;;;7.80;100.00
35908;BME280;22003;50.320;8.054;2023-11-21T09:00:05;99482.34;;;8.15;100.00
35908;BME280;22003;50.320;8.054;2023-11-21T09:02:36;99489.53;;;8.13;100.00
35908;BME280;22003;50.320;8.054;2023-11-21T09:05:03;99497.81;;;7.96;100.00
35908;BME280;22003;50.320;8.054;2023-11-21T09:07:29;99433.66;;;7.58;100.00
35908;BME280;22003;50.320;8.054;2023-11-21T09:09:54;99507.63;;;7.93;100.00
35908;BME280;22003;50.320;8.054;2023-11-21T09:12:20;99467.09;;;8.07;100.00
35908;BME280;22003;50.320;8.054;2023-11-21T09:14:45;99505.22;;;8.40;100.00
35908;BME280;22003;50.320;8.054;2023-11-21T09:17:11;99501.53;;;8.30;100.00
35908;BME280;22003;50.320;8.054;2023-11-21T09:19:37;99508.69;;;8.40;100.00
35908;BME280;22003;50.320;8.054;2023-11-21T09:22:03;99519.75;;;8.33;100.00
35908;BME280;22003;50.320;8.054;2023-11-21T09:24:30;99452.16;;;7.82;100.00
35908;BME280;22003;50.320;8.054;2023-11-21T09:26:55;99524.88;;;8.23;100.00
35908;BME280;22003;50.320;8.054;2023-11-21T09:29:20;99521.56;;;8.45;100.00
35908;BME280;22003;50.320;8.054;2023-11-21T09:31:47;99527.44;;;8.49;100.00
35908;BME280;22003;50.320;8.054;2023-11-21T09:34:12;99529.41;;;8.58;100.00
35908;BME280;22003;50.320;8.054;2023-11-21T09:36:38;99532.75;;;8.72;100.00
35908;BME280;22003;50.320;8.054;2023-11-21T09:39:04;99498.25;;;8.26;100.00
35908;BME280;22003;50.320;8.054;2023-11-21T09:41:46;99528.53;;;8.46;100.00
35908;BME280;22003;50.320;8.054;2023-11-21T09:44:13;99549.84;;;8.43;100.00
35908;BME280;22003;50.320;8.054;2023-11-21T09:46:41;99547.13;;;8.44;100.00
35908;BME280;22003;50.320;8.054;2023-11-21T09:49:09;99506.00;;;8.16;100.00
35908;BME280;22003;50.320;8.054;2023-11-21T09:51:39;99564.72;;;8.57;100.00
35908;BME280;22003;50.320;8.054;2023-11-21T09:54:06;99547.44;;;8.27;100.00
35908;BME280;22003;50.320;8.054;2023-11-21T09:56:34;99558.34;;;8.59;100.00
35908;BME280;22003;50.320;8.054;2023-11-21T09:58:59;99554.47;;;8.76;100.00
35908;BME280;22003;50.320;8.054;2023-11-21T10:01:30;99521.44;;;8.46;100.00
35908;BME280;22003;50.320;8.054;2023-11-21T10:03:56;99571.66;;;8.82;100.00
35908;BME280;22003;50.320;8.054;2023-11-21T10:06:22;99575.28;;;8.81;100.00
35908;BME280;22003;50.320;8.054;2023-11-21T10:08:49;99540.56;;;8.37;100.00
35908;BME280;22003;50.320;8.054;2023-11-21T10:11:17;99578.00;;;9.03;100.00
35908;BME280;22003;50.320;8.054;2023-11-21T10:13:44;99574.75;;;8.76;100.00
35908;BME280;22003;50.320;8.054;2023-11-21T10:16:14;99573.59;;;8.80;100.00
35908;BME280;22003;50.320;8.054;2023-11-21T10:18:41;99572.56;;;8.69;100.00
35908;BME280;22003;50.320;8.054;2023-11-21T10:21:07;99572.50;;;8.58;100.00
35908;BME280;22003;50.320;8.054;2023-11-21T10:23:34;99555.38;;;8.64;100.00
35908;BME280;22003;50.320;8.054;2023-11-21T10:25:59;99581.63;;;8.78;100.00
35908;BME280;22003;50.320;8.054;2023-11-21T10:28:25;99584.97;;;9.28;100.00
35908;BME280;22003;50.320;8.054;2023-11-21T10:30:50;99593.59;;;8.95;100.00
35908;BME280;22003;50.320;8.054;2023-11-21T10:33:15;99585.31;;;8.76;100.00
35908;BME280;22003;50.320;8.054;2023-11-21T10:38:06;99587.03;;;9.01;100.00
35908;BME280;22003;50.320;8.054;2023-11-21T10:40:37;99586.44;;;9.43;100.00
35908;BME280;22003;50.320;8.054;2023-11-21T10:43:08;99577.66;;;9.43;100.00
35908;BME280;22003;50.320;8.054;2023-11-21T10:45:38;99559.50;;;9.38;100.00
35908;BME280;22003;50.320;8.054;2023-11-21T10:48:07;99547.78;;;9.07;100.00
35908;BME280;22003;50.320;8.054;2023-11-21T10:50:34;99580.44;;;9.41;100.00
35908;BME280;22003;50.320;8.054;2023-11-21T10:53:04;99585.47;;;9.33;100.00
35908;BME280;22003;50.320;8.054;2023-11-21T10:55:30;99589.84;;;9.57;100.00
35908;BME280;22003;50.320;8.054;2023-11-21T10:57:58;99560.56;;;9.24;100.00
35908;BME280;22003;50.320;8.054;2023-11-21T11:00:26;99587.69;;;9.62;100.00
35908;BME280;22003;50.320;8.054;2023-11-21T11:02:53;99594.19;;;9.69;100.00
35908;BME280;22003;50.320;8.054;2023-11-21T11:05:20;99596.59;;;9.61;100.00
35908;BME280;22003;50.320;8.054;2023-11-21T11:07:48;99594.34;;;9.78;100.00
35908;BME280;22003;50.320;8.054;2023-11-21T11:10:18;99590.63;;;10.03;100.00
35908;BME280;22003;50.320;8.054;2023-11-21T11:12:47;99583.28;;;9.85;100.00
35908;BME280;22003;50.320;8.054;2023-11-21T11:15:12;99585.78;;;9.64;100.00
35908;BME280;22003;50.320;8.054;2023-11-21T11:17:38;99569.63;;;9.44;100.00
35908;BME280;22003;50.320;8.054;2023-11-21T11:20:04;99590.69;;;9.57;100.00
35908;BME280;22003;50.320;8.054;2023-11-21T11:22:50;99589.94;;;9.44;100.00
35908;BME280;22003;50.320;8.054;2023-11-21T11:28:20;99595.13;;;9.57;100.00
35908;BME280;22003;50.320;8.054;2023-11-21T11:30:53;99585.03;;;9.50;100.00
35908;BME280;22003;50.320;8.054;2023-11-21T11:33:45;99493.47;;;9.03;100.00
35908;BME280;22003;50.320;8.054;2023-11-21T11:36:23;99589.88;;;9.79;100.00
35908;BME280;22003;50.320;8.054;2023-11-21T11:38:50;99578.28;;;9.46;100.00
35908;BME280;22003;50.320;8.054;2023-11-21T11:41:26;99596.63;;;9.83;100.00
35908;BME280;22003;50.320;8.054;2023-11-21T11:43:53;99588.09;;;9.79;100.00
35908;BME280;22003;50.320;8.054;2023-11-21T11:46:18;99590.38;;;9.95;100.00
35908;BME280;22003;50.320;8.054;2023-11-21T11:48:48;99594.00;;;9.83;100.00
35908;BME280;22003;50.320;8.054;2023-11-21T11:51:14;99588.69;;;9.83;100.00
35908;BME280;22003;50.320;8.054;2023-11-21T11:53:43;99566.06;;;9.68;100.00
35908;BME280;22003;50.320;8.054;2023-11-21T11:58:54;99566.88;;;9.46;100.00
35908;BME280;22003;50.320;8.054;2023-11-21T12:01:21;99592.47;;;9.45;100.00
35908;BME280;22003;50.320;8.054;2023-11-21T12:06:41;99607.38;;;9.46;100.00
35908;BME280;22003;50.320;8.054;2023-11-21T12:09:06;99608.59;;;9.65;100.00
35908;BME280;22003;50.320;8.054;2023-11-21T12:11:32;99595.25;;;9.44;100.00
35908;BME280;22003;50.320;8.054;2023-11-21T12:13:58;99615.00;;;9.62;100.00
35908;BME280;22003;50.320;8.054;2023-11-21T12:16:25;99609.03;;;9.36;100.00
35908;BME280;22003;50.320;8.054;2023-11-21T12:18:53;99607.66;;;9.66;100.00
35908;BME280;22003;50.320;8.054;2023-11-21T12:21:19;99612.84;;;9.78;100.00
35908;BME280;22003;50.320;8.054;2023-11-21T12:23:45;99617.03;;;9.23;100.00
35908;BME280;22003;50.320;8.054;2023-11-21T12:26:12;99617.81;;;9.48;100.00
35908;BME280;22003;50.320;8.054;2023-11-21T12:28:38;99620.28;;;9.62;100.00
35908;BME280;22003;50.320;8.054;2023-11-21T12:31:03;99615.13;;;9.72;100.00
35908;BME280;22003;50.320;8.054;2023-11-21T12:33:32;99584.47;;;8.99;100.00
35908;BME280;22003;50.320;8.054;2023-11-21T12:35:57;99641.84;;;9.34;100.00
35908;BME280;22003;50.320;8.054;2023-11-21T12:38:23;99620.22;;;9.40;100.00
35908;BME280;22003;50.320;8.054;2023-11-21T12:40:49;99623.66;;;9.29;100.00
35908;BME280;22003;50.320;8.054;2023-11-21T12:43:15;99572.13;;;8.99;100.00
35908;BME280;22003;50.320;8.054;2023-11-21T12:45:42;99627.16;;;9.30;100.00
35908;BME280;22003;50.320;8.054;2023-11-21T12:48:09;99632.09;;;9.34;100.00
35908;BME280;22003;50.320;8.054;2023-11-21T12:50:37;99617.81;;;9.13;100.00
35908;BME280;22003;50.320;8.054;2023-11-21T12:53:05;99638.56;;;9.30;100.00
35908;BME280;22003;50.320;8.054;2023-11-21T12:55:35;99579.81;;;9.03;100.00
35908;BME280;22003;50.320;8.054;2023-11-21T12:58:04;99643.97;;;9.29;99.65
35908;BME280;22003;50.320;8.054;2023-11-21T13:00:39;99641.66;;;9.24;100.00
35908;BME280;22003;50.320;8.054;2023-11-21T13:03:08;99616.09;;;9.01;99.63
35908;BME280;22003;50.320;8.054;2023-11-21T13:05:38;99571.78;;;8.56;99.75
35908;BME280;22003;50.320;8.054;2023-11-21T13:08:06;99643.81;;;9.19;100.00